createdAt,value
2019-04-30T00:00:20.357Z,74.60
2019-04-30T00:03:41.594Z,74.41
2019-04-30T00:06:45.606Z,74.71
2019-04-30T00:09:54.058Z,74.96
2019-04-30T00:12:55.531Z,75.08
2019-04-30T00:16:01.607Z,75.33
2019-04-30T00:19:06.156Z,75.32
2019-04-30T00:22:10.409Z,75.98
2019-04-30T00:25:15.293Z,75.77
2019-04-30T00:28:19.540Z,75.79
2019-04-30T00:31:25.679Z,75.06
2019-04-30T00:34:30.941Z,75.52
2019-04-30T00:37:35.258Z,75.76
2019-04-30T00:40:39.171Z,75.63
2019-04-30T00:43:49.308Z,75.52
2019-04-30T00:46:48.292Z,75.54
2019-04-30T00:49:56.323Z,75.43
2019-04-30T00:52:57.898Z,75.75
2019-04-30T00:56:01.951Z,75.80
2019-04-30T00:59:07.181Z,76.17
2019-04-30T01:02:31.923Z,75.65
2019-04-30T01:05:33.008Z,75.89
2019-04-30T01:08:36.682Z,75.76
2019-04-30T01:11:46.766Z,75.62
2019-04-30T01:14:45.999Z,75.99
2019-04-30T01:17:53.609Z,75.90
2019-04-30T01:20:55.560Z,76.13
2019-04-30T01:23:59.579Z,76.04
2019-04-30T01:27:06.718Z,76.09
2019-04-30T01:30:13.258Z,75.46
2019-04-30T01:33:15.704Z,76.07
2019-04-30T01:36:19.397Z,76.45
2019-04-30T01:39:23.770Z,75.87
2019-04-30T01:42:28.566Z,75.87
2019-04-30T01:45:32.505Z,76.50
2019-04-30T01:48:36.177Z,76.24
2019-04-30T01:51:39.860Z,76.08
2019-04-30T01:54:43.556Z,76.42
2019-04-30T01:57:59.237Z,76.46
2019-04-30T02:01:06.967Z,75.77
2019-04-30T02:04:10.656Z,76.23
2019-04-30T02:07:14.363Z,76.58
2019-04-30T02:10:18.770Z,76.24
2019-04-30T02:13:22.434Z,76.58
2019-04-30T02:16:26.133Z,76.69
2019-04-30T02:19:31.232Z,76.70
2019-04-30T02:22:34.969Z,76.42
2019-04-30T02:25:39.916Z,76.35
2019-04-30T02:28:43.728Z,76.70
2019-04-30T02:31:50.114Z,76.33
2019-04-30T02:35:01.915Z,76.30
2019-04-30T02:38:12.129Z,76.55
2019-04-30T02:41:19.263Z,76.94
2019-04-30T02:44:24.236Z,76.66
2019-04-30T02:47:30.894Z,76.81
2019-04-30T02:50:35.743Z,77.25
2019-04-30T02:54:23.699Z,77.25
2019-04-30T02:57:25.169Z,77.09
2019-04-30T03:00:32.544Z,77.29
2019-04-30T03:03:34.295Z,77.70
2019-04-30T03:06:40.285Z,77.17
2019-04-30T03:09:44.390Z,77.01
2019-04-30T03:12:49.888Z,77.47
2019-04-30T03:15:53.497Z,77.93
2019-04-30T03:19:19.661Z,77.24
2019-04-30T03:22:25.790Z,77.38
2019-04-30T03:25:29.862Z,77.60
2019-04-30T03:28:34.080Z,77.38
2019-04-30T03:31:42.852Z,77.59
2019-04-30T03:34:43.562Z,77.36
2019-04-30T03:37:49.550Z,77.62
2019-04-30T03:40:52.644Z,77.67
2019-04-30T03:43:56.612Z,77.57
2019-04-30T03:47:00.306Z,77.63
2019-04-30T03:50:04.395Z,77.68
2019-04-30T03:53:10.456Z,77.94
2019-04-30T03:56:13.910Z,78.08
2019-04-30T03:59:19.925Z,77.79
2019-04-30T04:02:40.709Z,78.00
2019-04-30T04:05:51.784Z,77.66
2019-04-30T04:09:00.672Z,77.75
2019-04-30T04:12:23.265Z,78.21
2019-04-30T04:15:26.967Z,77.92
2019-04-30T04:18:30.643Z,78.33
2019-04-30T04:21:34.334Z,78.17
2019-04-30T04:24:40.096Z,78.25
2019-04-30T04:27:43.454Z,78.60
2019-04-30T04:30:50.293Z,78.58
2019-04-30T04:33:52.989Z,78.42
2019-04-30T04:36:56.692Z,78.56
2019-04-30T04:40:00.407Z,78.75
2019-04-30T04:43:04.193Z,78.69
2019-04-30T04:46:09.232Z,78.97
2019-04-30T04:49:13.147Z,79.18
2019-04-30T04:52:17.239Z,78.99
2019-04-30T04:55:22.248Z,79.29
2019-04-30T04:58:26.491Z,79.50
2019-04-30T05:01:30.206Z,79.51
2019-04-30T05:04:34.168Z,79.84
2019-04-30T05:07:39.975Z,79.81
2019-04-30T05:10:43.895Z,79.68
2019-04-30T05:13:48.995Z,80.13
2019-04-30T05:16:53.029Z,80.00
2019-04-30T05:19:58.678Z,80.12
2019-04-30T05:23:02.574Z,80.22
2019-04-30T05:26:08.453Z,80.04
2019-04-30T05:29:12.037Z,80.12
2019-04-30T05:32:15.816Z,80.60
2019-04-30T05:35:19.564Z,80.22
2019-04-30T05:38:23.266Z,80.74
2019-04-30T05:41:28.796Z,81.14
2019-04-30T05:44:32.453Z,81.62
2019-04-30T05:47:36.156Z,80.50
2019-04-30T05:50:39.870Z,81.18
2019-04-30T05:53:43.570Z,80.06
2019-04-30T05:56:47.279Z,79.29
2019-04-30T05:59:51.267Z,79.40
2019-04-30T06:02:55.323Z,78.92
2019-04-30T06:05:59.055Z,78.69
2019-04-30T06:09:14.766Z,78.81
2019-04-30T06:12:36.418Z,78.18
2019-04-30T06:15:48.991Z,77.56
2019-04-30T06:18:52.859Z,77.52
2019-04-30T06:22:05.815Z,77.47
2019-04-30T06:25:02.002Z,75.87
2019-04-30T06:28:05.772Z,75.50
2019-04-30T06:31:09.552Z,75.95
2019-04-30T06:34:13.589Z,76.30
2019-04-30T06:37:19.297Z,75.70
2019-04-30T06:40:23.322Z,74.29
2019-04-30T06:43:28.755Z,74.01
2019-04-30T06:46:32.809Z,74.13
2019-04-30T06:49:39.093Z,73.78
2019-04-30T06:52:53.756Z,73.68
2019-04-30T06:55:49.278Z,73.06
2019-04-30T06:58:53.416Z,72.54
2019-04-30T07:01:58.964Z,72.37
2019-04-30T07:05:02.749Z,72.58
2019-04-30T07:08:36.391Z,71.98
2019-04-30T07:11:33.635Z,71.68
2019-04-30T07:14:39.995Z,70.78
2019-04-30T07:17:43.090Z,70.63
2019-04-30T07:20:48.499Z,69.78
2019-04-30T07:23:52.540Z,69.60
2019-04-30T07:27:01.030Z,70.01
2019-04-30T07:30:39.569Z,68.98
2019-04-30T07:33:43.394Z,68.08
2019-04-30T07:36:55.149Z,67.20
2019-04-30T07:39:52.644Z,66.88
2019-04-30T07:42:58.932Z,66.92
2019-04-30T07:46:02.284Z,66.75
2019-04-30T07:49:05.988Z,66.49
2019-04-30T07:52:11.585Z,65.20
2019-04-30T07:55:15.392Z,65.83
2019-04-30T07:58:20.420Z,64.38
2019-04-30T08:01:24.472Z,62.95
2019-04-30T08:05:02.377Z,61.63
2019-04-30T08:08:20.126Z,61.23
2019-04-30T08:11:23.120Z,61.88
2019-04-30T08:14:18.488Z,60.64
2019-04-30T08:17:22.723Z,60.49
2019-04-30T08:20:26.433Z,60.30
2019-04-30T08:23:34.864Z,60.87
2019-04-30T08:26:35.660Z,59.16
2019-04-30T08:29:39.565Z,59.02
2019-04-30T08:32:43.336Z,59.99
2019-04-30T08:35:47.312Z,58.46
2019-04-30T08:38:51.032Z,57.07
2019-04-30T08:41:55.005Z,57.20
2019-04-30T08:44:58.876Z,56.82
2019-04-30T08:48:02.588Z,56.34
2019-04-30T08:51:06.458Z,56.41
2019-04-30T08:54:10.163Z,56.78
2019-04-30T08:57:13.881Z,56.65
2019-04-30T09:00:19.489Z,55.97
2019-04-30T09:03:23.514Z,54.26
2019-04-30T09:06:28.956Z,56.25
2019-04-30T09:09:33.336Z,55.75
2019-04-30T09:12:37.056Z,54.71
2019-04-30T09:15:40.764Z,54.24
2019-04-30T09:18:44.485Z,53.90
2019-04-30T09:21:48.888Z,52.51
2019-04-30T09:24:52.776Z,53.82
2019-04-30T09:27:56.487Z,55.86
2019-04-30T09:31:00.184Z,53.73
2019-04-30T09:34:14.336Z,51.19
2019-04-30T09:37:09.421Z,53.44
2019-04-30T09:40:17.957Z,51.03
2019-04-30T09:43:18.913Z,49.41
2019-04-30T09:46:27.047Z,50.06
2019-04-30T09:49:29.435Z,50.39
2019-04-30T09:52:35.903Z,50.12
2019-04-30T09:55:40.542Z,50.29
2019-04-30T09:58:44.385Z,49.90
2019-04-30T10:01:48.220Z,48.94
2019-04-30T10:04:52.351Z,47.50
2019-04-30T10:07:56.593Z,47.01
2019-04-30T10:11:25.310Z,44.80
2019-04-30T10:14:29.017Z,45.74
2019-04-30T10:17:40.628Z,44.15
2019-04-30T10:20:45.119Z,44.40
2019-04-30T10:23:49.929Z,42.23
2019-04-30T10:26:53.722Z,42.97
2019-04-30T10:29:59.265Z,41.91
2019-04-30T10:33:03.017Z,37.75
2019-04-30T10:36:06.795Z,37.67
2019-04-30T10:39:11.092Z,35.89
2019-04-30T10:42:14.756Z,35.80
2019-04-30T10:45:18.811Z,35.23
2019-04-30T10:48:22.508Z,36.23
2019-04-30T10:51:26.452Z,34.60
2019-04-30T10:54:30.484Z,35.62
2019-04-30T10:57:34.199Z,35.94
2019-04-30T11:00:40.232Z,35.97
2019-04-30T11:03:43.914Z,38.59
2019-04-30T11:06:47.767Z,37.10
2019-04-30T11:09:51.867Z,35.03
2019-04-30T11:12:55.551Z,35.43
2019-04-30T11:16:11.877Z,35.20
2019-04-30T11:19:05.069Z,33.97
2019-04-30T11:22:09.083Z,32.98
2019-04-30T11:25:13.394Z,31.75
2019-04-30T11:28:17.805Z,33.83
2019-04-30T11:31:46.490Z,32.36
2019-04-30T11:34:50.406Z,31.87
2019-04-30T11:37:54.186Z,30.33
2019-04-30T11:40:59.143Z,30.92
2019-04-30T11:44:02.839Z,30.07
2019-04-30T11:47:29.124Z,31.08
2019-04-30T11:50:33.153Z,31.21
2019-04-30T11:53:38.920Z,28.13
2019-04-30T11:56:42.426Z,29.28
2019-04-30T11:59:46.598Z,29.19
2019-04-30T12:02:52.807Z,29.66
2019-04-30T12:05:55.766Z,28.47
2019-04-30T12:09:09.683Z,29.24
2019-04-30T12:12:13.383Z,28.47
2019-04-30T12:15:19.101Z,28.04
2019-04-30T12:18:22.904Z,28.75
2019-04-30T12:21:26.870Z,28.22
2019-04-30T12:24:30.577Z,28.48
2019-04-30T12:27:34.647Z,31.14
2019-04-30T12:30:39.130Z,30.43
2019-04-30T12:33:42.964Z,32.13
2019-04-30T12:36:46.640Z,29.80
2019-04-30T12:39:50.335Z,27.83
2019-04-30T12:42:54.028Z,28.13
2019-04-30T12:46:04.895Z,30.15
2019-04-30T12:49:11.454Z,28.88
2019-04-30T12:52:19.970Z,27.81
2019-04-30T12:55:41.215Z,27.52
2019-04-30T12:58:44.914Z,28.52
2019-04-30T13:01:49.552Z,29.87
2019-04-30T13:04:53.288Z,30.15
2019-04-30T13:07:59.915Z,30.97
2019-04-30T13:11:03.355Z,33.07
2019-04-30T13:14:10.111Z,33.54
2019-04-30T13:17:12.855Z,34.62
2019-04-30T13:20:20.850Z,34.21
2019-04-30T13:23:22.545Z,34.38
2019-04-30T13:26:26.249Z,35.30
2019-04-30T13:29:35.106Z,35.76
2019-04-30T13:32:45.462Z,35.87
2019-04-30T13:35:49.239Z,33.91
2019-04-30T13:39:01.923Z,38.20
2019-04-30T13:42:17.667Z,41.25
2019-04-30T13:45:15.531Z,39.60
2019-04-30T13:48:19.907Z,43.45
2019-04-30T13:51:23.608Z,43.61
2019-04-30T13:54:27.324Z,45.32
2019-04-30T13:57:31.020Z,45.72
2019-04-30T14:00:34.793Z,45.90
2019-04-30T14:03:44.756Z,44.15
2019-04-30T14:07:06.361Z,44.53
2019-04-30T14:10:10.488Z,42.93
2019-04-30T14:13:14.299Z,43.21
2019-04-30T14:16:18.073Z,43.13
2019-04-30T14:19:21.861Z,43.71
2019-04-30T14:22:25.561Z,44.96
2019-04-30T14:25:29.445Z,46.59
2019-04-30T14:28:33.507Z,46.31
2019-04-30T14:31:38.810Z,47.46
2019-04-30T14:34:43.109Z,47.33
2019-04-30T14:37:46.970Z,48.00
2019-04-30T14:40:51.665Z,47.53
2019-04-30T14:44:02.160Z,47.96
2019-04-30T14:47:14.218Z,49.56
2019-04-30T14:50:19.568Z,48.70
2019-04-30T14:53:32.592Z,49.19
2019-04-30T14:56:41.418Z,49.91
2019-04-30T15:00:06.031Z,50.21
2019-04-30T15:03:11.670Z,50.23
2019-04-30T15:06:15.460Z,50.88
2019-04-30T15:09:20.041Z,50.73
2019-04-30T15:12:23.820Z,51.30
2019-04-30T15:15:29.236Z,51.49
2019-04-30T15:18:33.283Z,51.97
2019-04-30T15:21:36.999Z,52.50
2019-04-30T15:24:40.788Z,51.91
2019-04-30T15:27:47.642Z,52.64
2019-04-30T15:30:50.719Z,53.29
2019-04-30T15:34:03.063Z,53.29
2019-04-30T15:37:18.518Z,53.73
2019-04-30T15:40:11.828Z,53.09
2019-04-30T15:43:15.535Z,53.56
2019-04-30T15:46:19.314Z,53.61
2019-04-30T15:49:23.068Z,52.39
2019-04-30T15:52:28.797Z,53.22
2019-04-30T15:55:32.257Z,53.81
2019-04-30T15:58:38.899Z,53.39
2019-04-30T16:01:43.760Z,53.25
2019-04-30T16:05:06.493Z,53.78
2019-04-30T16:08:41.760Z,53.95
2019-04-30T16:11:54.124Z,53.47
2019-04-30T16:14:57.824Z,54.32
2019-04-30T16:18:02.119Z,55.13
2019-04-30T16:21:05.819Z,54.57
2019-04-30T16:24:09.772Z,55.07
2019-04-30T16:27:13.471Z,54.95
2019-04-30T16:30:19.553Z,55.86
2019-04-30T16:33:23.416Z,55.65
2019-04-30T16:36:29.036Z,55.53
2019-04-30T16:39:32.825Z,55.61
2019-04-30T16:42:38.918Z,56.59
2019-04-30T16:45:42.605Z,56.53
2019-04-30T16:48:46.635Z,56.56
2019-04-30T16:51:50.468Z,56.62
2019-04-30T16:54:54.181Z,56.83
2019-04-30T16:57:58.548Z,57.33
2019-04-30T17:01:04.053Z,57.22
2019-04-30T17:04:16.180Z,57.37
2019-04-30T17:07:30.895Z,57.57
2019-04-30T17:10:41.051Z,57.81
2019-04-30T17:13:51.733Z,58.33
2019-04-30T17:16:55.432Z,58.48
2019-04-30T17:19:59.141Z,59.21
2019-04-30T17:23:02.845Z,59.29
2019-04-30T17:26:06.881Z,59.85
2019-04-30T17:29:10.589Z,59.76
2019-04-30T17:32:14.292Z,60.01
2019-04-30T17:35:19.033Z,60.16
2019-04-30T17:38:22.928Z,60.79
2019-04-30T17:41:26.637Z,60.75
2019-04-30T17:44:30.350Z,60.97
2019-04-30T17:47:34.310Z,61.40
2019-04-30T17:50:39.619Z,61.68
2019-04-30T17:54:01.368Z,61.41
2019-04-30T17:57:05.413Z,61.43
2019-04-30T18:00:18.925Z,61.43
2019-04-30T18:03:18.959Z,61.38
2019-04-30T18:06:22.873Z,61.39
2019-04-30T18:09:26.677Z,61.38
2019-04-30T18:12:30.805Z,62.18
2019-04-30T18:15:34.525Z,62.08
2019-04-30T18:18:51.214Z,61.60
2019-04-30T18:21:59.678Z,61.87
2019-04-30T18:25:20.720Z,61.45
2019-04-30T18:28:24.705Z,61.94
2019-04-30T18:31:29.811Z,62.38
2019-04-30T18:34:33.615Z,62.26
2019-04-30T18:37:38.708Z,62.16
2019-04-30T18:40:42.517Z,62.21
2019-04-30T18:43:48.736Z,62.64
2019-04-30T18:46:52.758Z,63.59
2019-04-30T18:49:56.465Z,63.93
2019-04-30T18:53:02.708Z,64.56
2019-04-30T18:56:09.960Z,64.76
2019-04-30T18:59:11.945Z,65.27
2019-04-30T19:02:15.715Z,66.70
2019-04-30T19:05:25.730Z,66.33
2019-04-30T19:08:35.040Z,66.82
2019-04-30T19:11:54.357Z,67.08
2019-04-30T19:15:08.149Z,67.65
2019-04-30T19:18:25.922Z,68.48
2019-04-30T19:21:30.108Z,68.47
2019-04-30T19:24:33.808Z,68.58
2019-04-30T19:27:37.514Z,68.67
2019-04-30T19:30:41.374Z,69.19
2019-04-30T19:33:45.391Z,69.83
2019-04-30T19:36:49.351Z,69.65
2019-04-30T19:39:53.132Z,69.99
2019-04-30T19:42:56.845Z,70.31
2019-04-30T19:46:00.835Z,70.28
2019-04-30T19:49:04.718Z,70.75
2019-04-30T19:52:11.125Z,71.12
2019-04-30T19:55:13.937Z,71.03
2019-04-30T19:58:27.753Z,70.87
2019-04-30T20:01:23.070Z,71.50
2019-04-30T20:04:33.048Z,71.55
2019-04-30T20:07:32.217Z,71.42
2019-04-30T20:10:35.942Z,72.12
2019-04-30T20:13:40.524Z,72.68
2019-04-30T20:16:44.211Z,72.84
2019-04-30T20:19:48.926Z,72.70
2019-04-30T20:22:52.981Z,72.84
2019-04-30T20:25:56.678Z,73.01
2019-04-30T20:29:00.715Z,73.21
2019-04-30T20:32:04.483Z,73.16
2019-04-30T20:35:09.756Z,73.13
2019-04-30T20:38:22.115Z,72.58
2019-04-30T20:41:28.611Z,73.28
2019-04-30T20:44:32.396Z,73.33
2019-04-30T20:47:36.097Z,72.72
2019-04-30T20:50:39.809Z,73.23
2019-04-30T20:53:43.516Z,72.83
2019-04-30T20:56:48.347Z,72.86
2019-04-30T20:59:52.902Z,73.17
2019-04-30T21:02:56.685Z,73.01
2019-04-30T21:06:00.692Z,73.43
2019-04-30T21:09:06.150Z,74.10
2019-04-30T21:12:09.845Z,73.46
2019-04-30T21:15:13.933Z,73.77
2019-04-30T21:18:19.387Z,73.80
2019-04-30T21:21:23.109Z,74.60
2019-04-30T21:24:26.819Z,74.30
2019-04-30T21:27:30.632Z,74.41
2019-04-30T21:30:34.407Z,74.75
2019-04-30T21:33:43.124Z,74.91
2019-04-30T21:36:46.860Z,74.97
2019-04-30T21:39:50.587Z,74.64
2019-04-30T21:42:54.284Z,74.79
2019-04-30T21:45:59.411Z,75.31
2019-04-30T21:49:03.189Z,75.33
2019-04-30T21:52:06.887Z,75.02
2019-04-30T21:55:12.499Z,76.34
2019-04-30T21:58:16.285Z,75.31
2019-04-30T22:01:24.708Z,75.72
2019-04-30T22:04:28.513Z,75.62
2019-04-30T22:07:32.308Z,76.15
2019-04-30T22:10:36.340Z,75.87
2019-04-30T22:13:43.106Z,75.70
2019-04-30T22:16:46.446Z,76.22
2019-04-30T22:19:51.711Z,76.52
2019-04-30T22:22:55.612Z,76.49
2019-04-30T22:25:59.949Z,76.50
2019-04-30T22:29:03.857Z,76.06
2019-04-30T22:32:09.238Z,75.70
2019-04-30T22:35:31.276Z,76.07
2019-04-30T22:38:39.132Z,75.79
2019-04-30T22:41:42.951Z,76.74
2019-04-30T22:44:46.843Z,76.71
2019-04-30T22:47:50.579Z,76.07
2019-04-30T22:50:54.305Z,75.75
2019-04-30T22:53:58.109Z,75.93
2019-04-30T22:57:01.816Z,75.80
2019-04-30T23:00:09.704Z,76.41
2019-04-30T23:03:20.090Z,76.76
2019-04-30T23:06:24.230Z,76.65
2019-04-30T23:09:27.933Z,75.72
2019-04-30T23:12:31.714Z,76.27
2019-04-30T23:15:36.037Z,75.85
2019-04-30T23:18:39.736Z,75.68
2019-04-30T23:21:43.476Z,75.54
2019-04-30T23:24:47.472Z,75.30
2019-04-30T23:27:51.277Z,75.91
2019-04-30T23:30:55.060Z,76.48
2019-04-30T23:33:58.818Z,76.56
2019-04-30T23:37:02.890Z,75.78
2019-04-30T23:40:31.054Z,75.66
2019-04-30T23:43:34.775Z,75.85
2019-04-30T23:46:38.508Z,75.85
2019-04-30T23:49:42.289Z,76.08
2019-04-30T23:52:46.611Z,76.22
2019-04-30T23:55:50.382Z,75.94
2019-04-30T23:58:54.205Z,75.73
